Time;durP1;ratioP1;P1;durP2;ratioP2;P2;SDS_P1;SDS_P2;PMS_P1;PMS_P2;Temp;Humidity;BMP_temperature;BMP_pressure;BME280_temperature;BME280_humidity;BME280_pressure;Samples;Min_cycle;Max_cycle;Signal;HPM_P1;HPM_P2
2022/01/02 00:00:15;;;;;;;12.97;11.53;;;7.70;77.60;;;;;;4988188;28;20840;-83
2022/01/02 00:02:42;;;;;;;14.13;10.73;;;7.70;77.70;;;;;;4990309;28;21013;-84
2022/01/02 00:05:15;;;;;;;12.60;11.33;;;7.70;77.60;;;;;;4990196;28;20459;-84
2022/01/02 00:07:57;;;;;;;14.97;10.27;;;7.70;77.20;;;;;;4990934;28;20519;-83
2022/01/02 00:10:26;;;;;;;16.93;12.60;;;7.60;77.70;;;;;;4990723;28;20494;-82
2022/01/02 00:12:57;;;;;;;12.70;11.40;;;7.60;77.60;;;;;;4991960;28;20417;-83
2022/01/02 00:15:25;;;;;;;13.40;12.10;;;7.60;78.00;;;;;;4992166;28;20397;-82
2022/01/02 00:17:53;;;;;;;14.43;12.90;;;7.70;77.00;;;;;;4991040;28;20434;-83
2022/01/02 00:20:32;;;;;;;13.60;11.50;;;7.60;76.40;;;;;;4991863;28;20424;-82
2022/01/02 00:23:05;;;;;;;13.80;12.23;;;7.60;77.00;;;;;;4991497;28;20405;-83
2022/01/02 00:25:35;;;;;;;14.30;12.93;;;7.60;76.80;;;;;;4993348;28;20456;-83
2022/01/02 00:28:01;;;;;;;14.07;10.83;;;7.70;77.50;;;;;;4991951;28;20417;-83
2022/01/02 00:30:27;;;;;;;12.83;9.63;;;7.60;77.20;;;;;;4992548;28;20474;-83
2022/01/02 00:32:54;;;;;;;11.27;9.90;;;7.60;76.50;;;;;;4992471;28;20421;-82
2022/01/02 00:35:21;;;;;;;12.37;11.10;;;7.50;77.20;;;;;;4992685;28;20510;-83
2022/01/02 00:37:47;;;;;;;13.53;12.23;;;7.50;76.70;;;;;;4992492;28;20409;-83
2022/01/02 00:40:14;;;;;;;15.63;12.20;;;7.50;76.90;;;;;;4992420;28;20428;-82
2022/01/02 00:42:42;;;;;;;13.53;12.10;;;7.50;76.90;;;;;;4992346;28;20178;-83
2022/01/02 00:45:18;;;;;;;11.87;10.77;;;7.50;76.80;;;;;;4992164;28;20440;-83
2022/01/02 00:47:56;;;;;;;13.07;11.77;;;7.50;76.50;;;;;;4992655;28;20427;-83
2022/01/02 00:50:50;;;;;;;11.37;10.27;;;7.50;76.60;;;;;;4992431;28;20424;-83
2022/01/02 00:53:24;;;;;;;12.90;10.97;;;7.50;77.70;;;;;;4990220;28;20428;-84
2022/01/02 00:55:56;;;;;;;13.10;11.73;;;7.60;77.20;;;;;;4992727;28;20490;-83
2022/01/02 00:58:33;;;;;;;14.30;11.40;;;7.50;76.40;;;;;;4992091;28;20508;-83
2022/01/02 01:01:03;;;;;;;11.37;10.27;;;7.50;76.10;;;;;;4992026;28;20457;-83
2022/01/02 01:03:33;;;;;;;11.33;8.47;;;7.50;76.80;;;;;;4992883;28;20441;-83
2022/01/02 01:06:04;;;;;;;11.70;10.50;;;7.40;75.80;;;;;;4991679;28;20833;-83
2022/01/02 01:08:31;;;;;;;13.03;11.73;;;7.40;76.00;;;;;;4992454;28;20475;-83
2022/01/02 01:10:58;;;;;;;12.23;10.47;;;7.30;75.30;;;;;;4992399;28;20460;-83
2022/01/02 01:13:24;;;;;;;11.97;10.57;;;7.30;76.30;;;;;;4992108;28;20420;-83
2022/01/02 01:15:50;;;;;;;10.20;8.83;;;7.30;76.80;;;;;;4992604;28;20425;-85
2022/01/02 01:18:16;;;;;;;11.50;9.70;;;7.40;77.10;;;;;;4992324;28;20429;-82
2022/01/02 01:20:43;;;;;;;11.70;10.60;;;7.40;76.10;;;;;;4991779;28;20414;-84
2022/01/02 01:23:17;;;;;;;13.13;11.10;;;7.50;75.90;;;;;;4991386;28;20181;-84
2022/01/02 01:25:45;;;;;;;13.40;11.03;;;7.50;76.60;;;;;;4991991;28;20579;-84
2022/01/02 01:28:12;;;;;;;13.33;12.03;;;7.40;75.70;;;;;;4991661;28;20414;-83
2022/01/02 01:30:38;;;;;;;11.37;8.73;;;7.40;77.00;;;;;;4991797;28;20471;-83
2022/01/02 01:33:04;;;;;;;10.47;8.90;;;7.30;76.70;;;;;;4991825;28;20464;-84
2022/01/02 01:35:30;;;;;;;12.27;8.87;;;7.30;76.40;;;;;;4990855;28;20421;-84
2022/01/02 01:37:57;;;;;;;13.43;12.23;;;7.30;76.70;;;;;;4991328;28;20192;-84
2022/01/02 01:40:23;;;;;;;12.07;10.90;;;7.30;76.40;;;;;;4990877;28;20432;-84
2022/01/02 01:42:59;;;;;;;11.83;10.00;;;7.30;76.90;;;;;;4990533;28;20926;-84
2022/01/02 01:47:53;;;;;;;14.00;10.10;;;7.30;76.70;;;;;;4991505;28;20905;-83
2022/01/02 01:50:21;;;;;;;10.10;9.00;;;7.30;76.20;;;;;;4990522;28;20502;-83
2022/01/02 01:52:47;;;;;;;11.63;10.50;;;7.30;76.20;;;;;;4990706;28;20410;-84
2022/01/02 01:55:13;;;;;;;15.63;11.50;;;7.30;75.90;;;;;;4991387;28;20576;-85
2022/01/02 01:57:40;;;;;;;13.17;11.77;;;7.20;75.70;;;;;;4992945;28;20176;-86
2022/01/02 02:00:09;;;;;;;12.97;11.27;;;7.20;76.10;;;;;;4992125;28;20181;-84
2022/01/02 02:02:35;;;;;;;12.50;11.20;;;7.20;77.10;;;;;;4992268;28;20423;-86
2022/01/02 02:05:01;;;;;;;13.73;12.10;;;7.20;77.20;;;;;;4992004;28;20425;-86
2022/01/02 02:07:37;;;;;;;13.73;11.27;;;7.20;76.10;;;;;;4990870;28;20687;-86
2022/01/02 02:10:15;;;;;;;13.27;10.90;;;7.10;77.40;;;;;;4991137;28;20424;-85
2022/01/02 02:12:47;;;;;;;12.10;10.87;;;7.10;76.40;;;;;;4991458;28;20413;-85
2022/01/02 02:15:14;;;;;;;13.10;11.70;;;7.10;76.90;;;;;;4991715;28;20929;-85
2022/01/02 02:17:42;;;;;;;12.50;11.27;;;7.10;76.50;;;;;;4990696;28;20475;-85
2022/01/02 02:20:17;;;;;;;10.20;8.77;;;7.10;76.80;;;;;;4993796;28;20812;-84
2022/01/02 02:22:46;;;;;;;10.27;9.27;;;7.10;76.60;;;;;;4991970;28;20441;-85
2022/01/02 02:25:18;;;;;;;10.30;9.30;;;7.00;76.20;;;;;;4991539;28;20420;-85
2022/01/02 02:27:56;;;;;;;12.37;10.17;;;6.90;75.30;;;;;;4990579;28;20419;-85
2022/01/02 02:30:23;;;;;;;11.53;10.33;;;7.00;76.20;;;;;;4991300;28;20427;-85
2022/01/02 02:32:49;;;;;;;10.93;9.70;;;7.00;76.50;;;;;;4990083;28;20419;-85
2022/01/02 02:35:15;;;;;;;10.87;9.77;;;7.00;76.20;;;;;;4990989;28;20422;-86
2022/01/02 02:37:45;;;;;;;10.50;9.50;;;7.00;76.30;;;;;;4991398;28;20416;-85
2022/01/02 02:40:13;;;;;;;10.90;9.80;;;7.10;75.80;;;;;;4990714;28;20420;-86
2022/01/02 02:51:06;;;;;;;12.43;8.97;;;7.00;74.50;;;;;;4992372;28;20820;-85
2022/01/02 02:53:39;;;;;;;9.20;8.40;;;7.00;74.60;;;;;;4991652;28;20453;-85
2022/01/02 02:56:14;;;;;;;10.43;9.43;;;7.00;74.80;;;;;;4991785;28;20415;-85
2022/01/02 02:58:43;;;;;;;11.17;9.67;;;7.00;75.50;;;;;;4991963;28;21008;-84
2022/01/02 03:01:11;;;;;;;9.80;8.90;;;7.00;75.40;;;;;;4993145;28;20416;-85
2022/01/02 03:03:37;;;;;;;10.20;9.30;;;6.90;74.70;;;;;;4992366;28;20522;-85
2022/01/02 03:06:03;;;;;;;9.67;8.67;;;6.90;74.90;;;;;;4991293;28;20493;-85
2022/01/02 03:08:30;;;;;;;9.77;7.77;;;7.00;75.30;;;;;;4993413;28;20411;-85
2022/01/02 03:10:56;;;;;;;9.50;8.60;;;7.00;74.80;;;;;;4991916;28;20975;-84
2022/01/02 03:13:22;;;;;;;10.10;8.77;;;7.00;74.90;;;;;;4991657;28;20432;-85
2022/01/02 03:15:47;;;;;;;9.60;8.63;;;6.90;73.70;;;;;;4992051;28;20189;-84
2022/01/02 03:18:13;;;;;;;8.77;7.87;;;6.90;74.70;;;;;;4991663;28;20431;-85
2022/01/02 03:20:39;;;;;;;10.50;9.27;;;6.80;74.30;;;;;;4993701;28;20196;-85
2022/01/02 03:23:04;;;;;;;12.07;10.97;;;6.90;74.80;;;;;;4992471;28;20180;-85
2022/01/02 03:25:30;;;;;;;10.37;9.27;;;6.90;75.00;;;;;;4991294;28;20188;-86
2022/01/02 03:27:56;;;;;;;9.90;8.90;;;6.90;75.00;;;;;;4991649;28;20177;-85
2022/01/02 03:30:21;;;;;;;8.50;7.40;;;6.90;74.40;;;;;;4992032;28;20790;-85
2022/01/02 03:32:47;;;;;;;7.83;7.03;;;7.00;74.40;;;;;;4992815;28;20183;-85
2022/01/02 03:35:13;;;;;;;7.93;7.17;;;7.10;73.40;;;;;;4992008;28;20182;-86
2022/01/02 03:37:38;;;;;;;6.57;5.97;;;7.20;72.30;;;;;;4991527;28;20180;-85
2022/01/02 03:40:07;;;;;;;6.30;5.77;;;7.30;71.30;;;;;;4993296;28;20179;-85
2022/01/02 03:42:34;;;;;;;6.60;6.00;;;7.30;70.60;;;;;;4993163;28;20186;-85
2022/01/02 03:45:00;;;;;;;7.03;5.90;;;7.30;69.70;;;;;;4990810;28;20424;-85
2022/01/02 03:47:25;;;;;;;6.90;6.20;;;7.30;69.80;;;;;;4990418;28;20567;-85
2022/01/02 03:49:51;;;;;;;7.73;6.93;;;7.30;69.30;;;;;;4990319;28;20446;-84
2022/01/02 03:52:17;;;;;;;7.33;6.43;;;7.30;70.00;;;;;;4991149;28;20184;-85
2022/01/02 03:54:42;;;;;;;9.93;7.10;;;7.30;69.90;;;;;;4990583;28;20178;-85
2022/01/02 03:57:08;;;;;;;7.83;6.93;;;7.30;70.20;;;;;;4992952;28;20178;-85
2022/01/02 03:59:34;;;;;;;8.30;7.47;;;7.30;70.00;;;;;;4992565;28;20181;-85
2022/01/02 04:02:00;;;;;;;7.67;6.97;;;7.20;69.60;;;;;;4994707;28;20419;-84
2022/01/02 04:04:28;;;;;;;9.07;8.30;;;7.10;69.60;;;;;;4994579;28;20236;-85
2022/01/02 04:06:54;;;;;;;8.43;7.53;;;6.90;69.50;;;;;;4995819;28;20214;-85
2022/01/02 04:09:20;;;;;;;8.70;7.80;;;6.90;70.40;;;;;;4995118;28;20416;-85
2022/01/02 04:11:45;;;;;;;8.80;7.90;;;6.80;70.30;;;;;;4994923;28;20421;-84
2022/01/02 04:14:11;;;;;;;9.30;8.40;;;6.80;69.90;;;;;;5000755;28;20693;-86
2022/01/02 04:16:37;;;;;;;10.00;8.90;;;6.80;70.40;;;;;;4996207;28;20178;-86
2022/01/02 04:19:02;;;;;;;10.37;8.70;;;6.70;71.10;;;;;;4995330;28;20178;-85
2022/01/02 04:21:28;;;;;;;10.03;9.13;;;6.70;70.50;;;;;;4995767;28;20205;-86
2022/01/02 04:23:54;;;;;;;9.80;8.90;;;6.70;70.70;;;;;;4995269;28;20213;-85
2022/01/02 04:26:19;;;;;;;9.33;8.43;;;6.60;71.30;;;;;;4995343;28;20201;-85
2022/01/02 04:28:45;;;;;;;9.03;8.20;;;6.60;70.40;;;;;;4995681;28;20236;-83
2022/01/02 04:31:11;;;;;;;9.53;8.63;;;6.60;70.50;;;;;;4994736;28;20178;-84
2022/01/02 04:33:38;;;;;;;8.20;7.50;;;6.60;70.60;;;;;;4994636;28;20413;-85
2022/01/02 04:36:04;;;;;;;9.90;9.00;;;6.60;71.10;;;;;;4994806;28;20785;-85
2022/01/02 04:38:30;;;;;;;9.37;8.60;;;6.70;71.80;;;;;;4995815;28;20914;-84
2022/01/02 04:40:55;;;;;;;10.37;9.30;;;6.70;71.10;;;;;;4996370;28;20530;-85
2022/01/02 04:43:21;;;;;;;10.03;9.03;;;6.70;70.70;;;;;;4995412;28;20232;-85
2022/01/02 04:45:47;;;;;;;8.80;8.00;;;6.70;71.80;;;;;;4994850;28;20208;-85
2022/01/02 04:48:13;;;;;;;9.23;8.33;;;6.60;70.60;;;;;;4995740;28;20956;-86
2022/01/02 04:50:39;;;;;;;10.20;9.20;;;6.70;70.50;;;;;;4995297;28;20428;-84
2022/01/02 04:53:05;;;;;;;9.73;8.90;;;6.70;71.50;;;;;;4995714;28;20428;-85
2022/01/02 04:55:30;;;;;;;9.70;8.70;;;6.70;71.10;;;;;;4996003;28;20512;-85
2022/01/02 04:57:56;;;;;;;9.50;8.60;;;6.70;70.80;;;;;;4997747;28;20172;-85
2022/01/02 05:00:22;;;;;;;8.17;7.47;;;6.60;70.10;;;;;;4994044;28;20262;-85
2022/01/02 05:02:49;;;;;;;8.47;7.67;;;6.70;70.30;;;;;;4994413;28;20180;-86
2022/01/02 05:05:18;;;;;;;8.93;8.03;;;6.70;69.70;;;;;;4994024;28;20778;-86
2022/01/02 05:07:44;;;;;;;9.20;8.40;;;6.60;69.40;;;;;;4995771;28;21036;-87
2022/01/02 05:10:10;;;;;;;10.30;7.93;;;6.60;69.10;;;;;;4998057;28;20424;-83
2022/01/02 05:12:36;;;;;;;9.30;8.40;;;6.60;69.70;;;;;;4994334;28;20417;-83
2022/01/02 05:15:03;;;;;;;9.80;9.00;;;6.60;69.80;;;;;;4993986;28;20181;-83
2022/01/02 05:17:28;;;;;;;9.17;8.23;;;6.60;69.10;;;;;;4994342;28;20209;-84
2022/01/02 05:19:54;;;;;;;8.87;8.17;;;6.60;69.10;;;;;;4993761;28;20456;-83
2022/01/02 05:22:21;;;;;;;10.20;9.20;;;6.60;69.10;;;;;;4994002;28;20200;-83
2022/01/02 05:24:46;;;;;;;8.57;7.83;;;6.60;69.10;;;;;;4993785;28;20190;-84
2022/01/02 05:27:12;;;;;;;9.17;8.37;;;6.60;69.10;;;;;;4993992;28;20457;-83
2022/01/02 05:29:38;;;;;;;8.90;8.00;;;6.50;69.00;;;;;;4994316;28;20178;-85
2022/01/02 05:32:07;;;;;;;8.57;7.80;;;6.50;69.00;;;;;;4993866;28;20416;-83
2022/01/02 05:34:32;;;;;;;10.60;8.60;;;6.50;69.90;;;;;;4993526;28;20500;-83
2022/01/02 05:36:58;;;;;;;9.77;8.53;;;6.50;69.00;;;;;;4993915;28;20522;-84
2022/01/02 05:39:24;;;;;;;9.80;8.90;;;6.50;69.00;;;;;;4993391;28;20624;-84
2022/01/02 05:41:51;;;;;;;8.73;7.83;;;6.50;69.30;;;;;;4993617;28;20213;-84
2022/01/02 05:44:17;;;;;;;8.73;7.93;;;6.60;69.60;;;;;;4993468;28;20184;-84
2022/01/02 05:46:43;;;;;;;10.53;8.97;;;6.60;69.70;;;;;;4993471;28;20981;-84
2022/01/02 05:49:09;;;;;;;9.43;8.53;;;6.60;69.10;;;;;;4993414;28;20417;-83
2022/01/02 05:51:35;;;;;;;9.27;8.37;;;6.60;69.10;;;;;;4993461;28;20477;-83
2022/01/02 05:54:01;;;;;;;9.00;8.20;;;6.60;69.10;;;;;;4993407;28;20417;-84
2022/01/02 05:56:27;;;;;;;8.97;8.10;;;6.60;69.70;;;;;;4993334;28;20495;-83
2022/01/02 05:58:52;;;;;;;8.73;7.90;;;6.60;69.10;;;;;;4993211;28;20414;-83
2022/01/02 06:01:18;;;;;;;9.00;8.10;;;6.60;69.10;;;;;;4994451;28;20512;-84
2022/01/02 06:03:43;;;;;;;7.60;6.90;;;6.60;69.10;;;;;;4993059;28;20182;-83
2022/01/02 06:06:09;;;;;;;10.97;9.87;;;6.60;69.10;;;;;;4993027;28;20218;-84
2022/01/02 06:08:35;;;;;;;8.43;7.73;;;6.70;69.20;;;;;;4993135;28;20648;-82
2022/01/02 06:11:00;;;;;;;8.63;7.83;;;6.70;69.20;;;;;;4992998;28;20266;-82
2022/01/02 06:13:26;;;;;;;8.83;8.03;;;6.70;68.60;;;;;;4993338;28;20191;-82
2022/01/02 06:15:53;;;;;;;9.13;7.30;;;6.70;67.90;;;;;;4993207;28;20189;-83
2022/01/02 06:18:19;;;;;;;8.30;7.53;;;6.60;68.60;;;;;;4993134;28;20186;-83
2022/01/02 06:20:44;;;;;;;7.50;6.87;;;6.70;69.00;;;;;;4992752;28;20863;-82
2022/01/02 06:23:10;;;;;;;6.97;6.37;;;6.70;68.30;;;;;;4992756;28;20190;-84
2022/01/02 06:25:36;;;;;;;7.73;7.03;;;6.70;68.90;;;;;;4993192;28;20291;-84
2022/01/02 06:28:02;;;;;;;8.77;7.57;;;6.60;68.30;;;;;;4993391;28;20205;-84
2022/01/02 06:30:28;;;;;;;8.37;7.63;;;6.60;68.30;;;;;;4992750;28;20188;-84
2022/01/02 06:32:56;;;;;;;8.57;7.87;;;6.60;68.10;;;;;;4993301;28;20429;-85
2022/01/02 06:35:26;;;;;;;8.60;7.80;;;6.60;68.80;;;;;;4994468;28;20507;-86
2022/01/02 06:37:53;;;;;;;8.10;7.30;;;6.60;68.90;;;;;;4992622;28;20418;-86
2022/01/02 06:40:20;;;;;;;10.63;7.57;;;6.60;68.20;;;;;;4992290;28;20846;-86
2022/01/02 06:42:46;;;;;;;9.53;8.63;;;6.60;67.70;;;;;;4987472;28;20456;-87
2022/01/02 06:45:12;;;;;;;9.57;8.70;;;6.60;67.20;;;;;;4990242;28;20459;-86
2022/01/02 06:47:38;;;;;;;9.63;8.73;;;6.60;68.40;;;;;;4997602;28;20537;-86
2022/01/02 06:50:05;;;;;;;8.00;7.30;;;6.60;68.40;;;;;;5012297;28;20427;-86
2022/01/02 06:52:30;;;;;;;8.07;7.47;;;6.70;68.80;;;;;;5012094;28;20185;-86
2022/01/02 06:54:56;;;;;;;8.13;7.37;;;6.70;69.20;;;;;;5012011;28;20787;-86
2022/01/02 06:57:22;;;;;;;9.20;8.30;;;6.70;69.20;;;;;;5011952;28;20181;-86
2022/01/02 06:59:48;;;;;;;9.40;8.50;;;6.80;69.30;;;;;;5010914;28;20182;-86
2022/01/02 07:02:15;;;;;;;9.20;8.20;;;6.80;69.30;;;;;;5011984;28;20416;-85
2022/01/02 07:04:41;;;;;;;8.77;7.60;;;6.80;69.30;;;;;;5011745;28;20780;-85
2022/01/02 07:07:06;;;;;;;9.20;8.40;;;6.80;69.30;;;;;;5011508;28;20475;-85
2022/01/02 07:09:32;;;;;;;9.13;7.53;;;6.70;68.30;;;;;;5011831;28;20179;-86
2022/01/02 07:11:59;;;;;;;8.00;7.20;;;6.70;68.90;;;;;;5011973;28;20197;-86
2022/01/02 07:14:27;;;;;;;8.83;7.47;;;6.70;69.20;;;;;;5013026;28;20534;-85
2022/01/02 07:16:56;;;;;;;8.40;7.60;;;6.80;69.30;;;;;;5013702;28;20512;-86
2022/01/02 07:19:22;;;;;;;7.53;6.80;;;6.70;69.20;;;;;;5012342;28;20423;-86
2022/01/02 07:21:49;;;;;;;7.30;6.70;;;6.80;69.90;;;;;;5011898;28;20428;-86
2022/01/02 07:24:16;;;;;;;7.87;7.27;;;6.80;69.90;;;;;;5011411;28;20982;-82
2022/01/02 07:26:41;;;;;;;8.53;7.70;;;6.80;69.30;;;;;;5011067;28;20564;-82
2022/01/02 07:29:07;;;;;;;8.33;7.50;;;6.80;67.50;;;;;;5011028;28;20925;-84
2022/01/02 07:31:33;;;;;;;8.00;6.63;;;6.70;67.40;;;;;;5011196;28;20427;-83
2022/01/02 07:33:58;;;;;;;8.30;7.50;;;6.70;67.30;;;;;;5012368;28;20267;-84
2022/01/02 07:36:24;;;;;;;7.80;7.10;;;6.70;66.90;;;;;;5014897;28;20585;-82
2022/01/02 07:38:50;;;;;;;8.10;7.30;;;6.70;67.40;;;;;;5015356;28;20181;-85
2022/01/02 07:41:15;;;;;;;9.53;8.63;;;6.70;67.30;;;;;;5015383;28;20646;-89
2022/01/02 07:43:41;;;;;;;8.27;7.47;;;6.70;68.10;;;;;;5016238;28;20181;-85
2022/01/02 07:46:07;;;;;;;7.20;6.60;;;6.70;68.20;;;;;;5014888;28;20212;-86
2022/01/02 07:48:32;;;;;;;7.70;7.10;;;6.80;68.70;;;;;;5015158;28;20184;-86
2022/01/02 07:50:58;;;;;;;8.07;7.27;;;6.70;68.00;;;;;;5014184;28;20638;-85
2022/01/02 07:53:24;;;;;;;7.57;6.87;;;6.70;67.80;;;;;;5014670;28;20194;-85
2022/01/02 07:55:50;;;;;;;8.20;7.40;;;6.70;67.10;;;;;;5004181;28;20856;-83
2022/01/02 07:58:16;;;;;;;7.57;6.87;;;6.80;67.70;;;;;;4994445;28;20272;-84
2022/01/02 08:00:42;;;;;;;7.43;6.77;;;6.80;67.20;;;;;;4994306;28;20425;-85
2022/01/02 08:03:08;;;;;;;7.87;7.03;;;6.80;66.90;;;;;;4994635;28;20192;-85
2022/01/02 08:05:34;;;;;;;7.20;6.50;;;6.80;65.80;;;;;;4994137;28;20515;-85
2022/01/02 08:07:59;;;;;;;7.97;7.27;;;6.70;65.70;;;;;;4994575;28;20231;-84
2022/01/02 08:10:26;;;;;;;7.57;6.90;;;6.80;65.80;;;;;;4995200;28;20539;-87
2022/01/02 08:12:52;;;;;;;7.20;6.50;;;6.80;65.90;;;;;;4995245;28;20177;-85
2022/01/02 08:15:18;;;;;;;7.47;6.77;;;6.80;66.10;;;;;;4994891;28;20457;-84
2022/01/02 08:17:44;;;;;;;7.30;6.70;;;6.80;65.40;;;;;;4995066;28;20863;-84
2022/01/02 08:20:10;;;;;;;7.83;7.10;;;6.70;65.60;;;;;;4994826;28;20514;-85
2022/01/02 08:22:35;;;;;;;8.07;7.37;;;6.80;65.90;;;;;;4995031;28;20520;-84
2022/01/02 08:25:02;;;;;;;7.23;6.60;;;6.80;65.30;;;;;;4994768;28;20219;-79
2022/01/02 08:27:28;;;;;;;7.33;6.67;;;6.80;65.70;;;;;;4996083;28;20206;-82
2022/01/02 08:29:54;;;;;;;7.83;7.13;;;6.80;65.10;;;;;;4997345;28;20443;-88
2022/01/02 08:32:20;;;;;;;7.77;6.97;;;6.80;64.90;;;;;;4997165;28;20428;-89
2022/01/02 08:34:45;;;;;;;8.90;8.13;;;6.90;66.50;;;;;;4995257;28;20200;-88
2022/01/02 08:37:14;;;;;;;8.33;7.63;;;7.00;67.80;;;;;;4994402;28;20208;-88
2022/01/02 08:39:41;;;;;;;7.03;6.33;;;7.00;65.90;;;;;;4993996;28;20468;-88
2022/01/02 08:42:08;;;;;;;7.88;7.20;;;7.10;65.30;;;;;;4994298;28;20766;-90
2022/01/02 08:44:34;;;;;;;8.50;7.70;;;7.10;65.20;;;;;;4993508;28;20186;-89
2022/01/02 08:46:59;;;;;;;7.80;6.70;;;7.20;65.40;;;;;;4993943;28;20459;-87
2022/01/02 08:49:25;;;;;;;8.77;7.97;;;7.30;65.20;;;;;;4993779;28;20432;-87
2022/01/02 08:51:51;;;;;;;7.00;6.40;;;7.30;66.40;;;;;;4994591;28;20261;-87
2022/01/02 08:54:17;;;;;;;9.53;7.77;;;7.40;65.30;;;;;;4994233;28;20174;-88
2022/01/02 08:56:42;;;;;;;8.50;7.80;;;7.50;65.60;;;;;;4993918;28;20186;-87
2022/01/02 08:59:08;;;;;;;7.33;6.63;;;7.60;65.60;;;;;;4993732;28;20426;-87
2022/01/02 09:01:34;;;;;;;6.83;5.70;;;7.60;64.90;;;;;;4993769;28;20267;-88
2022/01/02 09:03:59;;;;;;;8.93;7.00;;;7.60;64.00;;;;;;4993862;28;20178;-88
2022/01/02 09:06:25;;;;;;;6.87;6.23;;;7.60;64.30;;;;;;4993425;28;20217;-88
2022/01/02 09:08:51;;;;;;;9.17;8.30;;;7.60;64.00;;;;;;4993770;28;20229;-88
2022/01/02 09:11:16;;;;;;;7.60;6.90;;;7.60;63.20;;;;;;4995055;28;20243;-88
2022/01/02 09:13:42;;;;;;;6.03;5.10;;;7.70;62.60;;;;;;4994379;28;20528;-86
2022/01/02 09:16:10;;;;;;;5.83;5.00;;;7.80;63.30;;;;;;4994070;28;20185;-85
2022/01/02 09:18:36;;;;;;;7.20;6.50;;;7.90;63.60;;;;;;4993796;28;20203;-86
2022/01/02 09:21:02;;;;;;;7.07;6.47;;;7.90;61.90;;;;;;4993240;28;20487;-87
2022/01/02 09:23:27;;;;;;;11.43;5.10;;;8.00;63.20;;;;;;4993714;28;20252;-88
2022/01/02 09:25:53;;;;;;;5.77;5.17;;;8.00;63.50;;;;;;4993583;28;20205;-87
2022/01/02 09:28:19;;;;;;;5.60;5.03;;;8.10;62.90;;;;;;4993527;28;20607;-87
2022/01/02 09:30:44;;;;;;;4.67;4.27;;;8.00;61.20;;;;;;5003188;28;20178;-87
2022/01/02 09:33:10;;;;;;;6.07;5.47;;;8.00;61.60;;;;;;4993201;28;20537;-87
2022/01/02 09:35:38;;;;;;;8.10;7.27;;;8.00;60.70;;;;;;4993527;28;20178;-87
2022/01/02 09:38:04;;;;;;;7.13;6.53;;;8.10;60.30;;;;;;4995422;28;20424;-88
2022/01/02 09:40:32;;;;;;;8.23;5.27;;;8.10;60.30;;;;;;4995918;28;20452;-87
2022/01/02 09:42:58;;;;;;;5.30;4.30;;;8.30;60.90;;;;;;4992772;28;20497;-86
2022/01/02 09:45:25;;;;;;;6.97;6.37;;;8.30;60.80;;;;;;4993072;28;20945;-87
2022/01/02 09:47:51;;;;;;;7.27;6.67;;;8.30;60.80;;;;;;4992688;28;20476;-87
2022/01/02 09:50:18;;;;;;;7.57;6.87;;;8.40;61.10;;;;;;4992832;28;20409;-87
2022/01/02 09:52:44;;;;;;;4.90;4.50;;;8.40;61.50;;;;;;4992849;28;20508;-87
2022/01/02 09:55:10;;;;;;;5.50;5.00;;;8.50;60.60;;;;;;4994097;28;20456;-88
2022/01/02 09:57:45;;;;;;;5.77;5.17;;;8.40;60.60;;;;;;4991857;28;21003;-87
2022/01/02 10:00:12;;;;;;;6.77;6.03;;;8.50;60.60;;;;;;4992708;28;20507;-87
2022/01/02 10:03:02;;;;;;;6.00;5.50;;;8.50;60.60;;;;;;4992537;28;20421;-88
2022/01/02 10:05:30;;;;;;;9.50;5.80;;;8.70;60.80;;;;;;4993615;28;20794;-89
2022/01/02 10:07:56;;;;;;;8.00;5.60;;;8.70;59.70;;;;;;4992117;28;20795;-89
2022/01/02 10:10:33;;;;;;;6.73;4.20;;;8.80;59.80;;;;;;4991998;28;20464;-89
2022/01/02 10:13:03;;;;;;;7.60;6.90;;;8.80;60.90;;;;;;4992584;28;20424;-88
2022/01/02 10:15:29;;;;;;;7.07;5.70;;;8.90;59.20;;;;;;4993029;28;20551;-89
2022/01/02 10:18:04;;;;;;;6.50;5.90;;;9.00;59.90;;;;;;4992633;28;20837;-89
2022/01/02 10:20:38;;;;;;;6.67;6.07;;;9.00;60.00;;;;;;4992695;28;20424;-85
2022/01/02 10:23:21;;;;;;;6.03;5.37;;;9.00;61.10;;;;;;4997540;28;20501;-88
2022/01/02 10:25:55;;;;;;;7.10;5.77;;;9.00;60.40;;;;;;4991804;28;20421;-88
2022/01/02 10:28:25;;;;;;;6.37;5.77;;;9.00;59.30;;;;;;4992688;28;20423;-89
2022/01/02 10:30:53;;;;;;;6.77;5.77;;;8.90;60.20;;;;;;4993304;28;20475;-89
2022/01/02 10:33:18;;;;;;;5.27;4.73;;;9.00;59.90;;;;;;4991949;28;20421;-88
2022/01/02 10:35:44;;;;;;;6.37;5.77;;;9.00;60.20;;;;;;4991842;28;20500;-88
2022/01/02 10:38:17;;;;;;;6.27;5.77;;;9.00;60.50;;;;;;4991624;28;20178;-88
2022/01/02 10:40:43;;;;;;;6.30;5.17;;;9.00;61.10;;;;;;4991914;28;20189;-87
2022/01/02 10:43:22;;;;;;;7.20;6.10;;;9.10;61.20;;;;;;4992798;28;20446;-88
2022/01/02 10:45:50;;;;;;;5.43;4.93;;;9.10;60.70;;;;;;5000510;28;20956;-87
2022/01/02 10:48:20;;;;;;;7.70;6.10;;;9.10;59.10;;;;;;4998892;28;20424;-89
2022/01/02 10:51:04;;;;;;;7.17;6.40;;;9.00;58.60;;;;;;4994949;28;20431;-88
2022/01/02 10:53:31;;;;;;;7.27;5.67;;;9.00;58.70;;;;;;4992298;28;20429;-87
2022/01/02 10:55:58;;;;;;;7.40;6.80;;;9.00;58.80;;;;;;4991901;28;20495;-87
2022/01/02 10:58:26;;;;;;;11.00;4.97;;;9.10;58.60;;;;;;4992249;28;20432;-89
2022/01/02 11:00:52;;;;;;;7.43;6.60;;;9.10;59.80;;;;;;4992432;28;20425;-88
2022/01/02 11:03:24;;;;;;;8.37;6.90;;;9.10;58.70;;;;;;4992786;28;20421;-87
2022/01/02 11:05:58;;;;;;;7.40;6.60;;;9.20;58.70;;;;;;4993168;28;20535;-88
2022/01/02 11:08:27;;;;;;;7.83;6.87;;;9.30;58.10;;;;;;4993626;28;20457;-89
2022/01/02 11:10:55;;;;;;;6.73;6.03;;;9.30;58.60;;;;;;4993590;28;20929;-89
2022/01/02 11:13:21;;;;;;;7.13;6.40;;;9.40;60.20;;;;;;4992060;28;20823;-87
2022/01/02 11:15:47;;;;;;;9.07;8.27;;;9.40;60.60;;;;;;4992261;28;20472;-87
2022/01/02 11:18:14;;;;;;;8.43;7.73;;;9.50;59.60;;;;;;4990123;28;20491;-85
2022/01/02 11:20:41;;;;;;;8.70;7.80;;;9.50;60.70;;;;;;4991452;28;20429;-87
2022/01/02 11:23:22;;;;;;;14.77;10.73;;;9.50;59.80;;;;;;4991601;28;20933;-88
2022/01/02 11:26:25;;;;;;;17.63;13.77;;;9.60;61.00;;;;;;4991951;28;20475;-86
2022/01/02 11:28:52;;;;;;;9.80;7.67;;;9.60;61.60;;;;;;4991583;28;20527;-84
2022/01/02 11:31:43;;;;;;;9.90;7.07;;;9.70;58.90;;;;;;4991845;28;20421;-87
2022/01/02 11:34:24;;;;;;;10.00;7.23;;;9.80;60.10;;;;;;4973911;28;20866;-86
2022/01/02 11:36:51;;;;;;;9.70;8.70;;;9.80;59.40;;;;;;4991611;28;20425;-84
2022/01/02 11:39:17;;;;;;;10.10;7.33;;;9.90;59.90;;;;;;4998216;28;20432;-83
2022/01/02 11:41:50;;;;;;;10.27;7.10;;;9.80;60.10;;;;;;5011291;28;20420;-82
2022/01/02 11:44:21;;;;;;;8.50;6.80;;;9.90;61.00;;;;;;5010790;28;20185;-81
2022/01/02 11:46:52;;;;;;;9.50;7.33;;;9.90;61.70;;;;;;5010747;28;20470;-83
2022/01/02 11:49:40;;;;;;;7.67;5.83;;;9.90;61.10;;;;;;5010799;28;20782;-80
2022/01/02 11:52:08;;;;;;;18.17;11.80;;;9.90;60.70;;;;;;5010657;28;20924;-82
2022/01/02 11:54:46;;;;;;;9.43;7.60;;;10.10;58.60;;;;;;5010679;28;20423;-83
2022/01/02 11:57:11;;;;;;;10.83;7.80;;;10.10;58.20;;;;;;5012330;28;20402;-83
2022/01/02 11:59:43;;;;;;;7.40;6.60;;;10.20;56.70;;;;;;5011258;28;20420;-82
2022/01/02 12:02:17;;;;;;;9.40;6.37;;;10.30;57.10;;;;;;5010471;28;20185;-83
2022/01/02 12:05:14;;;;;;;6.90;6.13;;;10.30;57.20;;;;;;5010739;28;20432;-81
2022/01/02 12:07:50;;;;;;;12.40;8.90;;;10.40;58.40;;;;;;5010597;28;20468;-83
2022/01/02 12:10:15;;;;;;;9.30;7.37;;;10.50;56.60;;;;;;5010390;28;20427;-82
2022/01/02 12:12:59;;;;;;;34.40;22.73;;;10.80;49.60;;;;;;5010557;28;20499;-82
2022/01/02 12:15:31;;;;;;;14.77;10.73;;;11.50;46.50;;;;;;5010145;28;20190;-82
2022/01/02 12:18:31;;;;;;;4.40;2.53;;;11.90;42.20;;;;;;5010197;28;20420;-81
2022/01/02 12:20:57;;;;;;;2.93;1.97;;;12.20;42.50;;;;;;5012722;28;20456;-82
2022/01/02 12:23:35;;;;;;;2.70;2.50;;;12.40;42.00;;;;;;5013740;28;20755;-82
2022/01/02 12:26:04;;;;;;;5.80;4.83;;;12.40;39.90;;;;;;5014255;28;20616;-83
2022/01/02 12:29:06;;;;;;;9.90;6.87;;;12.50;40.00;;;;;;5014178;28;20455;-84
2022/01/02 12:31:43;;;;;;;6.80;2.60;;;12.80;38.30;;;;;;5014213;28;20446;-84
2022/01/02 12:34:10;;;;;;;5.00;3.40;;;12.80;38.10;;;;;;5013834;28;20416;-84
2022/01/02 12:36:37;;;;;;;1.80;1.70;;;12.80;38.70;;;;;;5014070;28;20507;-84
2022/01/02 12:39:06;;;;;;;3.20;2.00;;;12.90;37.40;;;;;;5013499;28;20424;-83
2022/01/02 12:41:35;;;;;;;7.33;3.73;;;12.90;36.30;;;;;;5013968;28;20466;-81
2022/01/02 12:44:07;;;;;;;4.53;2.93;;;13.00;43.10;;;;;;5013952;28;20906;-83
2022/01/02 12:46:51;;;;;;;6.43;4.00;;;13.10;37.20;;;;;;5011714;28;20574;-81
2022/01/02 12:49:29;;;;;;;2.03;1.30;;;13.30;37.50;;;;;;5013832;28;20444;-84
2022/01/02 12:52:06;;;;;;;2.17;1.70;;;13.30;35.10;;;;;;5014328;28;20533;-87
2022/01/02 12:54:41;;;;;;;3.50;2.23;;;13.30;34.60;;;;;;5014270;28;20418;-87
2022/01/02 12:57:09;;;;;;;1.73;1.63;;;13.40;35.80;;;;;;5013632;28;20424;-86
2022/01/02 12:59:42;;;;;;;2.50;1.50;;;13.30;34.40;;;;;;5013790;28;20428;-86
2022/01/02 13:02:12;;;;;;;1.57;1.13;;;13.50;35.40;;;;;;5013394;28;20424;-86
2022/01/02 13:04:39;;;;;;;3.33;1.83;;;13.60;34.60;;;;;;5014854;28;20471;-86
2022/01/02 13:07:12;;;;;;;1.40;1.27;;;13.40;35.30;;;;;;5013299;28;20459;-87